createdAt,value
2023-02-19T00:21:13.047Z,11.60
2023-02-19T01:01:06.131Z,10.30
2023-02-19T02:15:02.387Z,8.10
2023-02-19T07:35:37.315Z,6.00
2023-02-19T07:38:41.367Z,5.80
2023-02-19T07:47:46.351Z,4.70
2023-02-19T08:01:55.426Z,3.70
2023-02-19T08:05:19.420Z,3.70
2023-02-19T08:08:26.400Z,4.20
2023-02-19T08:35:33.215Z,3.40
2023-02-19T08:39:06.482Z,3.00
2023-02-19T08:46:18.626Z,2.90
2023-02-19T08:48:59.667Z,3.30
2023-02-19T08:52:45.279Z,3.10
2023-02-19T08:55:26.642Z,3.20
2023-02-19T08:58:16.737Z,2.70
2023-02-19T09:00:58.748Z,3.00
2023-02-19T09:03:48.878Z,2.50
2023-02-19T09:06:51.662Z,2.60
2023-02-19T09:09:56.640Z,2.40
2023-02-19T09:12:59.595Z,2.20
2023-02-19T09:16:05.184Z,2.50
2023-02-19T09:19:06.633Z,2.20
2023-02-19T09:22:09.691Z,2.20
2023-02-19T09:25:11.662Z,1.80
2023-02-19T09:29:38.671Z,1.80
2023-02-19T10:58:37.958Z,0.70
2023-02-19T11:01:39.685Z,0.90
2023-02-19T11:04:39.864Z,1.20
2023-02-19T11:07:19.601Z,1.10
2023-02-19T11:09:53.787Z,0.90
2023-02-19T11:12:34.203Z,1.00
2023-02-19T11:15:25.389Z,1.00
2023-02-19T11:18:22.631Z,1.30
2023-02-19T11:21:08.717Z,1.10
2023-02-19T11:23:48.810Z,1.20
2023-02-19T11:26:32.220Z,1.20
2023-02-19T11:34:14.248Z,1.30
2023-02-19T11:36:44.963Z,1.70
2023-02-19T11:39:19.014Z,1.30
2023-02-19T11:42:17.346Z,1.10
2023-02-19T11:46:23.120Z,0.90
2023-02-19T11:59:38.567Z,1.40
2023-02-19T12:02:34.106Z,1.20
2023-02-19T12:10:21.772Z,0.80
2023-02-19T12:14:10.676Z,0.70
2023-02-19T12:16:53.942Z,1.00
2023-02-19T12:20:38.995Z,0.70
2023-02-19T12:23:38.024Z,0.60
2023-02-19T12:26:35.790Z,0.90
2023-02-19T12:29:30.526Z,0.60
2023-02-19T12:32:38.669Z,0.50
2023-02-19T12:40:49.413Z,0.40
2023-02-19T12:43:29.097Z,0.40
2023-02-19T12:46:14.870Z,0.50
2023-02-19T12:49:14.279Z,0.40
2023-02-19T12:52:14.521Z,0.50
2023-02-19T13:00:07.550Z,0.40
2023-02-19T13:02:44.323Z,0.60
2023-02-19T13:05:37.946Z,0.40
2023-02-19T13:08:34.202Z,0.70
2023-02-19T13:15:41.873Z,0.50
2023-02-19T13:18:26.462Z,0.60
2023-02-19T13:20:57.313Z,0.70
2023-02-19T13:44:28.811Z,0.50
2023-02-19T13:47:06.135Z,0.60
2023-02-19T13:53:48.143Z,0.70
2023-02-19T14:03:37.285Z,0.70
2023-02-19T14:06:09.999Z,0.50
2023-02-19T14:08:58.457Z,0.50
2023-02-19T14:11:42.051Z,0.90
2023-02-19T14:14:32.820Z,1.00
2023-02-19T14:22:55.862Z,1.00
2023-02-19T14:25:27.529Z,1.10
2023-02-19T14:28:25.963Z,1.20
2023-02-19T14:31:01.245Z,1.20
2023-02-19T14:44:02.529Z,1.20
2023-02-19T14:47:41.005Z,1.30
2023-02-19T14:59:13.272Z,1.60
2023-02-19T15:02:45.052Z,1.30
2023-02-19T15:09:57.060Z,1.50
2023-02-19T15:12:33.316Z,1.40
2023-02-19T15:15:10.467Z,1.80
2023-02-19T15:19:17.468Z,1.80
2023-02-19T15:27:07.282Z,1.80
2023-02-19T15:29:48.987Z,1.80
2023-02-19T15:32:22.812Z,2.00
2023-02-19T15:39:51.740Z,2.50
2023-02-19T15:42:33.133Z,2.00
2023-02-19T15:45:23.144Z,2.00
2023-02-19T15:48:06.351Z,1.60
2023-02-19T15:50:41.621Z,2.20
2023-02-19T15:54:57.690Z,2.00
2023-02-19T15:57:41.553Z,1.70
2023-02-19T16:00:32.754Z,2.00
2023-02-19T16:03:20.964Z,1.70
2023-02-19T16:06:31.499Z,1.70
2023-02-19T16:10:09.331Z,2.10
2023-02-19T16:12:37.418Z,2.40
2023-02-19T16:15:20.061Z,1.60
2023-02-19T16:17:50.528Z,1.70
2023-02-19T16:21:07.283Z,1.60
2023-02-19T16:24:18.709Z,1.80
2023-02-19T16:26:51.018Z,2.20
2023-02-19T16:29:27.825Z,2.30
2023-02-19T16:36:42.633Z,2.80
2023-02-19T16:39:13.052Z,2.60
2023-02-19T16:42:45.392Z,2.20
2023-02-19T16:46:50.391Z,2.40
2023-02-19T16:54:33.433Z,3.80
2023-02-19T16:57:03.800Z,4.20
2023-02-19T16:59:43.021Z,3.50
2023-02-19T17:02:17.985Z,4.60
2023-02-19T17:05:48.440Z,3.70
2023-02-19T17:08:20.434Z,3.80
2023-02-19T17:11:27.659Z,3.50
2023-02-19T17:14:09.666Z,3.50
2023-02-19T17:16:49.103Z,3.10
2023-02-19T17:39:33.373Z,3.80
2023-02-19T17:42:05.456Z,3.80
2023-02-19T17:44:46.849Z,3.10
2023-02-19T17:53:40.505Z,2.30
2023-02-19T17:56:08.826Z,2.00
2023-02-19T17:58:38.326Z,2.10
2023-02-19T18:01:11.191Z,2.50
2023-02-19T18:09:31.106Z,2.10
2023-02-19T18:13:13.835Z,2.40
2023-02-19T18:30:36.999Z,3.90
2023-02-19T18:34:11.880Z,3.70
2023-02-19T18:36:44.757Z,4.00
2023-02-19T18:39:15.379Z,2.30
2023-02-19T18:41:55.006Z,1.10
2023-02-19T18:54:13.483Z,0.90
2023-02-19T18:56:48.300Z,1.20
2023-02-19T18:59:16.752Z,1.00
2023-02-19T19:01:47.406Z,1.20
2023-02-19T19:04:18.293Z,1.20
2023-02-19T19:21:04.829Z,1.00
2023-02-19T19:23:46.913Z,3.00
2023-02-19T21:01:02.351Z,3.40
2023-02-19T21:03:30.942Z,2.90
2023-02-19T21:06:00.829Z,2.50
2023-02-19T22:30:11.293Z,2.20
2023-02-19T22:42:56.998Z,1.80
2023-02-19T22:46:31.196Z,1.30
2023-02-19T22:53:39.461Z,2.10
2023-02-19T22:56:09.945Z,1.90
2023-02-19T22:58:40.660Z,2.10
2023-02-19T23:01:12.870Z,1.70
2023-02-19T23:03:55.888Z,2.00
